createdAt,value
2022-12-03T00:01:31.208Z,21.73
2022-12-03T00:11:34.652Z,25.37
2022-12-03T00:21:39.086Z,21.30
2022-12-03T00:31:43.253Z,22.87
2022-12-03T00:41:47.669Z,24.03
2022-12-03T00:51:50.666Z,24.30
2022-12-03T01:01:55.132Z,23.63
2022-12-03T01:11:58.234Z,24.97
2022-12-03T01:22:03.064Z,21.67
2022-12-03T01:32:19.338Z,25.33
2022-12-03T01:42:26.931Z,19.77
2022-12-03T01:52:33.345Z,23.20
2022-12-03T02:02:37.781Z,24.30
2022-12-03T02:12:44.620Z,24.53
2022-12-03T02:22:58.819Z,24.33
2022-12-03T02:33:03.570Z,27.13
2022-12-03T02:43:07.128Z,25.53
2022-12-03T02:53:16.036Z,24.70
2022-12-03T03:03:19.885Z,28.33
2022-12-03T03:13:24.867Z,26.20
2022-12-03T03:23:28.093Z,28.70
2022-12-03T03:33:32.822Z,27.13
2022-12-03T03:43:38.003Z,25.47
2022-12-03T03:53:45.293Z,25.67
2022-12-03T04:03:48.341Z,26.60
2022-12-03T04:13:52.837Z,25.87
2022-12-03T04:23:55.857Z,28.67
2022-12-03T04:34:17.650Z,26.93
2022-12-03T04:44:36.769Z,28.60
2022-12-03T04:54:41.831Z,24.23
2022-12-03T05:04:44.861Z,26.80
2022-12-03T05:14:49.274Z,27.03
2022-12-03T05:24:52.650Z,26.23
2022-12-03T05:34:57.306Z,24.23
2022-12-03T05:45:00.348Z,27.47
2022-12-03T05:55:05.303Z,28.07
2022-12-03T06:05:09.183Z,26.47
2022-12-03T06:15:15.109Z,22.80
2022-12-03T06:25:18.666Z,26.10
2022-12-03T06:35:23.032Z,23.17
2022-12-03T06:45:26.083Z,24.07
2022-12-03T06:55:30.524Z,21.87
2022-12-03T07:05:33.608Z,25.00
2022-12-03T07:15:38.023Z,21.97
2022-12-03T07:25:41.111Z,24.07
2022-12-03T07:35:45.562Z,22.30
2022-12-03T07:45:48.649Z,21.20
2022-12-03T07:55:53.043Z,23.30
2022-12-03T08:05:56.119Z,22.30
2022-12-03T08:16:03.111Z,20.57
2022-12-03T08:26:16.692Z,20.63
2022-12-03T08:36:24.700Z,20.30
2022-12-03T08:46:28.484Z,22.30
2022-12-03T08:56:36.954Z,21.53
2022-12-03T09:06:40.022Z,21.77
2022-12-03T09:16:44.739Z,21.83
2022-12-03T09:26:47.844Z,22.57
2022-12-03T09:36:52.246Z,23.23
2022-12-03T09:46:59.373Z,23.47
2022-12-03T09:57:05.288Z,23.77
2022-12-03T10:07:10.708Z,24.57
2022-12-03T10:17:15.691Z,20.87
2022-12-03T10:27:24.422Z,20.00
2022-12-03T10:37:28.912Z,24.93
2022-12-03T10:47:32.099Z,18.97
2022-12-03T10:57:39.928Z,21.70
2022-12-03T11:07:46.169Z,19.43
2022-12-03T11:17:52.585Z,19.10
2022-12-03T11:28:34.596Z,20.73
2022-12-03T11:38:59.829Z,20.43
2022-12-03T11:49:03.600Z,17.37
2022-12-03T11:59:14.854Z,18.57
2022-12-03T12:09:54.048Z,17.23
2022-12-03T12:30:27.548Z,17.67
2022-12-03T12:40:32.812Z,16.50
2022-12-03T12:50:38.496Z,18.40
2022-12-03T13:00:41.852Z,16.27
2022-12-03T13:10:46.865Z,19.77
2022-12-03T13:20:49.976Z,19.17
2022-12-03T13:30:55.250Z,17.03
2022-12-03T13:41:01.115Z,17.07
2022-12-03T13:51:25.627Z,17.10
2022-12-03T14:01:28.854Z,16.67
2022-12-03T14:11:50.968Z,17.33
2022-12-03T14:21:54.019Z,17.13
2022-12-03T14:31:58.520Z,17.27
2022-12-03T14:42:16.731Z,16.17
2022-12-03T14:52:21.509Z,18.00
2022-12-03T15:02:24.582Z,15.83
2022-12-03T15:12:28.995Z,18.40
2022-12-03T15:22:32.028Z,18.20
2022-12-03T15:32:36.482Z,18.80
2022-12-03T15:42:39.514Z,18.47
2022-12-03T15:52:43.955Z,18.30
2022-12-03T16:02:52.628Z,17.53
2022-12-03T16:12:57.452Z,19.53
2022-12-03T16:23:00.423Z,18.13
2022-12-03T16:33:05.078Z,17.73
2022-12-03T16:43:09.623Z,19.10
2022-12-03T16:53:14.156Z,18.80
2022-12-03T17:03:18.305Z,19.00
2022-12-03T17:13:23.158Z,18.57
2022-12-03T17:23:26.195Z,18.40
2022-12-03T17:33:30.599Z,19.30
2022-12-03T17:43:33.665Z,19.20
2022-12-03T17:53:38.115Z,20.83
2022-12-03T18:03:41.435Z,19.37
2022-12-03T18:13:46.062Z,20.07
2022-12-03T18:23:49.049Z,19.00
2022-12-03T18:33:53.560Z,22.70
2022-12-03T18:43:56.765Z,19.30
2022-12-03T18:54:01.110Z,19.97
2022-12-03T19:04:04.456Z,20.53
2022-12-03T19:14:09.141Z,21.87
2022-12-03T19:24:27.537Z,21.83
2022-12-03T19:34:31.977Z,21.23
2022-12-03T19:44:35.123Z,20.23
2022-12-03T19:54:39.515Z,20.57
2022-12-03T20:04:42.625Z,18.77
2022-12-03T20:14:47.094Z,16.93
2022-12-03T20:24:50.086Z,18.00
2022-12-03T20:34:54.475Z,22.10
2022-12-03T20:44:57.471Z,21.47
2022-12-03T20:55:01.903Z,21.47
2022-12-03T21:05:05.706Z,24.63
2022-12-03T21:15:10.646Z,22.87
2022-12-03T21:25:13.678Z,20.27
2022-12-03T21:35:18.946Z,18.73
2022-12-03T21:45:25.017Z,18.77
2022-12-03T21:55:29.574Z,19.80
2022-12-03T22:05:32.589Z,16.17
2022-12-03T22:15:39.821Z,19.17
2022-12-03T22:25:42.881Z,19.93
2022-12-03T22:35:56.188Z,21.23
2022-12-03T22:45:59.233Z,20.10
2022-12-03T22:56:03.696Z,22.73
2022-12-03T23:06:11.518Z,22.87
2022-12-03T23:16:19.531Z,22.87
2022-12-03T23:26:22.978Z,22.53
2022-12-03T23:36:29.394Z,22.90
2022-12-03T23:46:32.486Z,24.83
2022-12-03T23:56:37.000Z,23.13
